Transatlantic — WDC2769 — position and weather

sailwx.info

Track history (hours):
 
Tides and Currents Weather Stations Pressure Air Temp Water Temp Dewpoint Dewpoint Depression Visibility Wind Speed Wind Dir Waves Ship Positions

Transatlantic

Owner: TRANSATLANTIC LINES SHIP HOLDINGS II INC, Greenwich, CT. More information available from US FCC via Universal Licensing System and Coast Guard Vessel Documentation Center.

Last reported at 2015-May-22 17:34 UTC. Time now 2015-May-22 17:42 UTC.
Position N 37°36' W 026°27'.

Length 101 m; draft 4.8 m.

Type: Cargo ship. MMSI: 366997520.

Date/timePositionNaut miles runAvg speedWind from/ knotsBaromVisibWave heightAir tempDewpointWater temp
2015-May-22 17:34N 37°36' W 026°27'1514.5
2015-May-22 16:34N 37°37' W 026°46'1514.3
2015-May-22 15:31N 37°38' W 027°04'1414.4
2015-May-22 14:33N 37°39' W 027°22'1714.1
2015-May-22 13:20N 37°40' W 027°43'1114.4
2015-May-22 12:33N 37°41' W 027°58'1414.0
2015-May-22 11:33N 37°41' W 028°15'1414.1
2015-May-22 10:33N 37°42' W 028°33'1414.1
2015-May-22 09:33N 37°43' W 028°51'1414.1
2015-May-22 08:33N 37°44' W 029°09'1414.3
2015-May-22 07:34N 37°46' W 029°27'1414.3
2015-May-22 06:33N 37°47' W 029°45'1914.0
2015-May-22 05:13N 37°49' W 030°08'1014.2
2015-May-22 04:32N 37°50' W 030°21'1313.9
2015-May-22 03:33N 37°51' W 030°38'  
2015-May-14 20:08N 36°58' W 076°20'0 0.0
2015-May-14 19:32N 36°58' W 076°20'0 0.0
2015-May-14 18:32N 36°58' W 076°20'0 0.0
2015-May-14 17:32N 36°58' W 076°20'0 0.0
2015-May-14 14:14N 36°58' W 076°20'0 0.0
2015-May-14 13:32N 36°58' W 076°20'  
Track history (hours):
 
Tides and Currents Weather Stations Pressure Air Temp Water Temp Dewpoint Dewpoint Depression Visibility Wind Speed Wind Dir Waves Ship Positions

Transatlantic

Owner: TRANSATLANTIC LINES SHIP HOLDINGS II INC, Greenwich, CT. More information available from US FCC via Universal Licensing System and Coast Guard Vessel Documentation Center.

Last reported at 2015-May-22 17:34 UTC. Time now 2015-May-22 17:43 UTC.
Position N 37°36' W 026°27'.

Length 101 m; draft 4.8 m.

Type: Cargo ship. MMSI: 366997520.

Date/timePositionNaut miles runAvg speedWind from/ knotsBaromVisibWave heightAir tempDewpointWater temp
2015-May-22 17:34N 37°36' W 026°27'1514.5
2015-May-22 16:34N 37°37' W 026°46'1514.3
2015-May-22 15:31N 37°38' W 027°04'1414.4
2015-May-22 14:33N 37°39' W 027°22'1714.1
2015-May-22 13:20N 37°40' W 027°43'1114.4
2015-May-22 12:33N 37°41' W 027°58'1414.0
2015-May-22 11:33N 37°41' W 028°15'1414.1
2015-May-22 10:33N 37°42' W 028°33'1414.1
2015-May-22 09:33N 37°43' W 028°51'1414.1
2015-May-22 08:33N 37°44' W 029°09'1414.3
2015-May-22 07:34N 37°46' W 029°27'1414.3
2015-May-22 06:33N 37°47' W 029°45'1914.0
2015-May-22 05:13N 37°49' W 030°08'1014.2
2015-May-22 04:32N 37°50' W 030°21'1313.9
2015-May-22 03:33N 37°51' W 030°38'  
2015-May-14 20:08N 36°58' W 076°20'0 0.0
2015-May-14 19:32N 36°58' W 076°20'0 0.0
2015-May-14 18:32N 36°58' W 076°20'0 0.0
2015-May-14 17:32N 36°58' W 076°20'0 0.0
2015-May-14 14:14N 36°58' W 076°20'0 0.0
2015-May-14 13:32N 36°58' W 076°20'  

Dump ship's entire track history